ESMX

Växjö Kronoberg Airport

Växjö, Sweden
TAF ESMX 241730Z 2418/2422 30005KT CAVOK
Issued Valid From Valid To
Sep-24 @ 17:30 UTC
(2 hours ago)
Sep-24 @ 18:00 UTC
(2 hours ago)
Sep-24 @ 22:00 UTC
(in 2 hours)
Sep-24 @ 18:00 to Sep-24 @ 22:00
TAF ESMX 241730Z 2418/2422 30005KT CAVOK
Wind Visibility Clouds Conditions
300° at 5 knots 10,000+ meters
  • No significant clouds
TAF ESMX 241730Z 2418/2422 30005KT CAVOK
Issued Sep-24 @ 17:30 UTC
(2 hours ago)
Valid From Sep-24 @ 18:00 UTC
(2 hours ago)
Valid To Sep-24 @ 22:00 UTC
(in 2 hours)
Sep-24 @ 18:00 - Sep-24 @ 22:00
Wind Visibility
300° at 5 knots 10,000+ meters
Clouds
  • No significant clouds
Conditions